createdAt,value
2023-03-29T00:00:16.907Z,68.40
2023-03-29T00:02:48.271Z,67.70
2023-03-29T00:05:17.747Z,66.50
2023-03-29T00:07:45.628Z,65.50
2023-03-29T00:10:14.327Z,65.80
2023-03-29T00:12:42.638Z,65.30
2023-03-29T00:15:11.195Z,65.00
2023-03-29T00:17:41.394Z,64.50
2023-03-29T00:20:10.451Z,64.70
2023-03-29T00:22:39.789Z,64.10
2023-03-29T00:25:08.199Z,63.60
2023-03-29T00:27:36.173Z,62.30
2023-03-29T00:30:05.712Z,62.20
2023-03-29T00:32:34.680Z,60.30
2023-03-29T00:35:05.193Z,59.60
2023-03-29T00:37:33.278Z,59.60
2023-03-29T00:40:01.178Z,60.00
2023-03-29T00:42:29.217Z,57.80
2023-03-29T00:45:04.088Z,58.50
2023-03-29T00:47:36.998Z,58.30
2023-03-29T00:50:14.322Z,57.20
2023-03-29T00:52:44.231Z,56.20
2023-03-29T00:55:16.816Z,55.50
2023-03-29T00:57:46.847Z,56.10
2023-03-29T01:00:20.789Z,55.60
2023-03-29T01:02:55.183Z,55.60
2023-03-29T01:05:30.955Z,54.80
2023-03-29T01:08:02.254Z,54.90
2023-03-29T01:10:35.738Z,55.10
2023-03-29T01:13:09.472Z,54.10
2023-03-29T01:15:39.839Z,53.50
2023-03-29T01:18:08.756Z,53.00
2023-03-29T01:20:55.482Z,53.30
2023-03-29T01:23:43.551Z,53.20
2023-03-29T01:26:20.038Z,54.00
2023-03-29T01:28:53.935Z,53.10
2023-03-29T01:31:25.283Z,53.20
2023-03-29T01:33:59.820Z,53.10
2023-03-29T01:36:34.952Z,53.30
2023-03-29T01:39:07.012Z,53.00
2023-03-29T01:41:42.397Z,52.50
2023-03-29T01:44:17.438Z,52.70
2023-03-29T01:46:48.215Z,52.90
2023-03-29T01:49:23.459Z,53.50
2023-03-29T01:51:57.470Z,54.10
2023-03-29T01:54:29.622Z,55.80
2023-03-29T01:56:59.310Z,57.30
2023-03-29T01:59:32.318Z,58.40
2023-03-29T02:02:05.373Z,59.50
2023-03-29T02:04:37.120Z,60.60
2023-03-29T02:07:08.661Z,61.40
2023-03-29T02:09:38.405Z,62.10
2023-03-29T02:12:08.252Z,62.70
2023-03-29T02:14:37.466Z,63.30
2023-03-29T02:17:18.311Z,63.80
2023-03-29T02:19:50.173Z,64.40
2023-03-29T02:22:23.318Z,64.40
2023-03-29T02:24:54.852Z,64.00
2023-03-29T02:27:22.701Z,63.80
2023-03-29T02:29:51.872Z,63.60
2023-03-29T02:32:23.689Z,63.70
2023-03-29T02:34:57.040Z,63.60
2023-03-29T02:37:26.620Z,63.90
2023-03-29T02:39:54.802Z,63.70
2023-03-29T02:42:24.242Z,63.70
2023-03-29T02:44:57.044Z,63.70
2023-03-29T02:47:31.903Z,63.50
2023-03-29T02:50:00.305Z,63.10
2023-03-29T02:52:34.188Z,63.30
2023-03-29T02:55:04.106Z,63.30
2023-03-29T02:57:32.496Z,63.30
2023-03-29T03:00:06.947Z,62.90
2023-03-29T03:02:35.501Z,62.40
2023-03-29T03:05:03.861Z,62.80
2023-03-29T03:07:31.760Z,62.20
2023-03-29T03:09:59.584Z,61.60
2023-03-29T03:12:27.384Z,61.50
2023-03-29T03:14:55.275Z,61.30
2023-03-29T03:17:24.614Z,60.40
2023-03-29T03:19:53.167Z,60.40
2023-03-29T03:22:21.175Z,60.40
2023-03-29T03:24:49.322Z,59.70
2023-03-29T03:27:18.023Z,59.00
2023-03-29T03:29:45.833Z,58.80
2023-03-29T03:32:13.627Z,58.40
2023-03-29T03:34:43.515Z,57.80
2023-03-29T03:37:12.912Z,57.40
2023-03-29T03:39:40.920Z,56.80
2023-03-29T03:42:08.770Z,56.80
2023-03-29T03:44:36.586Z,56.50
2023-03-29T03:47:06.657Z,56.40
2023-03-29T03:49:34.691Z,56.20
2023-03-29T03:52:03.894Z,56.00
2023-03-29T03:54:32.414Z,55.50
2023-03-29T03:57:00.281Z,54.60
2023-03-29T03:59:28.859Z,54.20
2023-03-29T04:01:56.815Z,54.00
2023-03-29T04:04:25.518Z,52.80
2023-03-29T04:06:53.404Z,51.60
2023-03-29T04:09:23.366Z,51.80
2023-03-29T04:11:53.096Z,51.90
2023-03-29T04:14:21.624Z,52.40
2023-03-29T04:16:49.575Z,53.00
2023-03-29T04:19:17.682Z,54.50
2023-03-29T04:21:47.609Z,56.00
2023-03-29T04:24:15.704Z,57.20
2023-03-29T04:26:45.062Z,57.70
2023-03-29T04:29:12.904Z,57.90
2023-03-29T04:31:40.749Z,58.10
2023-03-29T04:34:08.573Z,58.40
2023-03-29T04:36:36.574Z,59.20
2023-03-29T04:39:04.763Z,59.80
2023-03-29T04:41:32.616Z,59.90
2023-03-29T04:44:02.532Z,60.20
2023-03-29T04:46:31.067Z,60.40
2023-03-29T04:48:59.980Z,60.70
2023-03-29T04:51:27.814Z,61.30
2023-03-29T04:53:55.901Z,61.60
2023-03-29T04:56:24.095Z,62.00
2023-03-29T04:58:52.022Z,62.00
2023-03-29T05:01:21.216Z,62.50
2023-03-29T05:03:49.202Z,62.80
2023-03-29T05:06:17.091Z,62.90
2023-03-29T05:08:45.233Z,63.40
2023-03-29T05:11:13.654Z,63.00
2023-03-29T05:13:42.570Z,63.40
2023-03-29T05:16:11.610Z,63.30
2023-03-29T05:18:40.789Z,63.70
2023-03-29T05:21:09.462Z,63.40
2023-03-29T05:23:37.481Z,63.60
2023-03-29T05:26:08.038Z,63.40
2023-03-29T05:28:35.832Z,63.40
2023-03-29T05:31:16.808Z,63.20
2023-03-29T05:33:48.578Z,63.10
2023-03-29T05:36:18.960Z,63.30
2023-03-29T05:38:47.537Z,63.20
2023-03-29T05:41:15.898Z,63.50
2023-03-29T05:43:43.693Z,63.30
2023-03-29T05:46:12.367Z,63.70
2023-03-29T05:48:40.257Z,64.20
2023-03-29T05:51:09.865Z,63.00
2023-03-29T05:53:38.323Z,63.30
2023-03-29T05:56:08.691Z,63.30
2023-03-29T05:58:36.472Z,63.40
2023-03-29T06:01:06.101Z,63.00
2023-03-29T06:03:34.099Z,63.50
2023-03-29T06:06:04.030Z,63.10
2023-03-29T06:08:34.954Z,62.80
2023-03-29T06:11:05.229Z,63.20
2023-03-29T06:13:34.487Z,64.10
2023-03-29T06:16:04.228Z,64.80
2023-03-29T06:18:32.179Z,65.00
2023-03-29T06:21:00.773Z,64.00
2023-03-29T06:23:29.133Z,63.70
2023-03-29T06:26:00.126Z,63.40
2023-03-29T06:28:28.252Z,62.20
2023-03-29T06:31:02.391Z,62.50
2023-03-29T06:33:30.883Z,64.00
2023-03-29T06:35:58.990Z,64.70
2023-03-29T06:38:28.574Z,63.90
2023-03-29T06:41:03.981Z,62.90
2023-03-29T06:43:33.386Z,63.60
2023-03-29T06:46:01.787Z,63.90
2023-03-29T06:48:29.810Z,63.20
2023-03-29T06:50:57.877Z,63.20
2023-03-29T06:53:26.297Z,62.90
2023-03-29T06:55:54.157Z,63.70
2023-03-29T06:58:23.388Z,63.70
2023-03-29T07:00:51.706Z,64.00
2023-03-29T07:03:23.342Z,63.50
2023-03-29T07:05:52.208Z,63.70
2023-03-29T07:08:21.283Z,62.90
2023-03-29T07:10:53.664Z,60.70
2023-03-29T07:13:23.544Z,59.40
2023-03-29T07:15:51.477Z,60.80
2023-03-29T07:18:19.851Z,60.70
2023-03-29T07:20:48.555Z,58.60
2023-03-29T07:23:18.002Z,58.10
2023-03-29T07:25:46.209Z,59.70
2023-03-29T07:28:14.034Z,60.60
2023-03-29T07:30:43.192Z,60.80
2023-03-29T07:33:12.317Z,60.00
2023-03-29T07:35:43.368Z,59.50
2023-03-29T07:38:11.533Z,60.90
2023-03-29T07:40:39.301Z,62.00
2023-03-29T07:43:09.316Z,63.10
2023-03-29T07:45:37.263Z,55.80
2023-03-29T07:48:07.220Z,55.10
2023-03-29T07:50:35.341Z,55.10
2023-03-29T07:53:03.372Z,54.10
2023-03-29T07:55:31.991Z,52.90
2023-03-29T07:57:59.848Z,51.80
2023-03-29T08:00:27.989Z,49.70
2023-03-29T08:02:55.900Z,49.90
2023-03-29T08:05:40.111Z,49.40
2023-03-29T08:08:09.609Z,49.10
2023-03-29T08:10:39.098Z,48.60
2023-03-29T08:13:08.402Z,49.00
2023-03-29T08:15:37.783Z,49.30
2023-03-29T08:18:06.066Z,48.20
2023-03-29T08:20:35.227Z,47.60
2023-03-29T08:23:03.263Z,48.30
2023-03-29T08:25:31.259Z,48.30
2023-03-29T08:27:59.187Z,47.50
2023-03-29T08:30:27.048Z,48.40
2023-03-29T08:32:56.237Z,47.70
2023-03-29T08:35:24.039Z,48.00
2023-03-29T08:37:53.162Z,48.20
2023-03-29T08:40:24.527Z,47.60
2023-03-29T08:43:14.913Z,47.50
2023-03-29T08:45:52.172Z,48.20
2023-03-29T08:48:28.482Z,47.50
2023-03-29T08:51:01.400Z,47.70
2023-03-29T08:53:34.656Z,47.00
2023-03-29T08:56:06.029Z,47.40
2023-03-29T08:58:36.136Z,46.90
2023-03-29T09:01:06.242Z,47.80
2023-03-29T09:03:38.087Z,47.60
2023-03-29T09:06:08.725Z,45.80
2023-03-29T09:08:41.113Z,46.80
2023-03-29T09:11:27.504Z,46.20
2023-03-29T09:14:06.912Z,46.60
2023-03-29T09:16:40.220Z,46.50
2023-03-29T09:19:20.856Z,45.50
2023-03-29T09:21:57.514Z,45.70
2023-03-29T09:24:54.174Z,45.60
2023-03-29T09:27:27.610Z,46.50
2023-03-29T09:30:04.672Z,45.40
2023-03-29T09:32:39.874Z,47.00
2023-03-29T09:35:18.218Z,45.20
2023-03-29T09:37:48.503Z,44.80
2023-03-29T09:40:21.444Z,45.80
2023-03-29T09:42:51.066Z,46.20
2023-03-29T09:45:19.494Z,45.80
2023-03-29T09:47:50.882Z,44.40
2023-03-29T09:50:31.026Z,44.10
2023-03-29T09:52:59.281Z,44.50
2023-03-29T09:55:32.318Z,44.90
2023-03-29T09:58:02.821Z,45.90
2023-03-29T10:00:30.897Z,45.90
2023-03-29T10:03:00.341Z,44.40
2023-03-29T10:05:30.915Z,45.10
2023-03-29T10:08:02.168Z,46.30
2023-03-29T10:10:34.345Z,44.90
2023-03-29T10:13:06.248Z,45.30
2023-03-29T10:15:34.432Z,45.10
2023-03-29T10:18:06.740Z,44.60
2023-03-29T10:20:36.405Z,44.60
2023-03-29T10:23:07.861Z,45.10
2023-03-29T10:25:42.492Z,44.50
2023-03-29T10:28:17.545Z,44.80
2023-03-29T10:30:48.630Z,44.80
2023-03-29T10:33:20.502Z,44.70
2023-03-29T10:35:49.267Z,45.80
2023-03-29T10:38:20.039Z,44.30
2023-03-29T10:40:51.808Z,45.40
2023-03-29T10:43:24.545Z,44.10
2023-03-29T10:45:54.925Z,45.50
2023-03-29T10:48:28.831Z,44.50
2023-03-29T10:50:59.618Z,45.40
2023-03-29T10:53:29.881Z,45.50
2023-03-29T10:56:19.942Z,44.50
2023-03-29T10:59:01.972Z,44.60
2023-03-29T11:01:39.358Z,43.00
2023-03-29T11:04:22.941Z,41.80
2023-03-29T11:07:01.883Z,41.60
2023-03-29T11:09:43.135Z,41.70
2023-03-29T11:12:18.757Z,43.20
2023-03-29T11:14:56.572Z,41.90
2023-03-29T11:17:39.305Z,41.30
2023-03-29T11:20:27.009Z,42.50
2023-03-29T11:23:08.195Z,42.30
2023-03-29T11:25:46.043Z,41.00
2023-03-29T11:28:20.669Z,41.20
2023-03-29T11:30:55.036Z,42.60
2023-03-29T11:33:37.660Z,41.10
2023-03-29T11:36:16.579Z,41.10
2023-03-29T11:38:55.791Z,40.20
2023-03-29T11:41:27.609Z,40.90
2023-03-29T11:44:02.223Z,41.30
2023-03-29T11:46:33.424Z,41.30
2023-03-29T11:49:06.051Z,41.90
2023-03-29T11:51:38.757Z,43.10
2023-03-29T11:54:16.307Z,43.00
2023-03-29T11:56:48.551Z,42.20
2023-03-29T11:59:24.670Z,42.70
2023-03-29T12:01:56.492Z,42.70
2023-03-29T12:04:30.608Z,42.80
2023-03-29T12:07:09.848Z,41.90
2023-03-29T12:09:42.438Z,42.90
2023-03-29T12:12:16.071Z,42.70
2023-03-29T12:14:55.500Z,43.00
2023-03-29T12:17:29.045Z,43.00
2023-03-29T12:20:08.032Z,42.80
2023-03-29T12:22:37.853Z,42.80
2023-03-29T12:25:09.154Z,43.90
2023-03-29T12:27:46.813Z,43.20
2023-03-29T12:30:34.438Z,43.30
2023-03-29T12:33:29.691Z,44.30
2023-03-29T12:36:11.499Z,43.50
2023-03-29T12:38:40.369Z,42.40
2023-03-29T12:41:16.757Z,42.60
2023-03-29T12:43:44.704Z,43.40
2023-03-29T12:46:18.244Z,43.70
2023-03-29T12:48:50.483Z,43.20
2023-03-29T12:51:21.062Z,42.90
2023-03-29T12:53:51.922Z,42.90
2023-03-29T12:56:23.634Z,42.90
2023-03-29T12:58:56.378Z,42.60
2023-03-29T13:01:28.975Z,41.50
2023-03-29T13:04:13.625Z,41.60
2023-03-29T13:07:03.925Z,41.50
2023-03-29T13:09:48.018Z,40.90
2023-03-29T13:12:25.020Z,41.60
2023-03-29T13:14:55.194Z,41.00
2023-03-29T13:17:28.430Z,41.00
2023-03-29T13:20:14.753Z,41.00
2023-03-29T13:22:52.818Z,40.30
2023-03-29T13:25:55.928Z,40.40
2023-03-29T13:28:31.023Z,40.00
2023-03-29T13:31:02.090Z,39.70
2023-03-29T13:33:46.057Z,39.50
2023-03-29T13:36:21.669Z,40.60
2023-03-29T13:38:51.702Z,40.60
2023-03-29T13:41:34.215Z,40.10
2023-03-29T13:44:02.571Z,40.50
2023-03-29T13:46:38.867Z,41.30
2023-03-29T13:49:16.358Z,39.20
2023-03-29T13:51:49.638Z,40.50
2023-03-29T13:54:27.715Z,40.90
2023-03-29T13:57:03.094Z,41.20
2023-03-29T13:59:38.579Z,41.20
2023-03-29T14:02:07.719Z,42.40
2023-03-29T14:04:42.161Z,41.50
2023-03-29T14:07:14.398Z,41.40
2023-03-29T14:09:45.902Z,42.90
2023-03-29T14:12:15.692Z,42.20
2023-03-29T14:14:57.809Z,41.70
2023-03-29T14:17:26.642Z,42.20
2023-03-29T14:19:59.085Z,42.40
2023-03-29T14:22:32.089Z,41.90
2023-03-29T14:25:04.638Z,40.60
2023-03-29T14:27:33.470Z,41.90
2023-03-29T14:30:01.297Z,41.40
2023-03-29T14:32:31.264Z,41.30
2023-03-29T14:35:01.827Z,42.30
2023-03-29T14:37:30.770Z,40.20
2023-03-29T14:40:00.572Z,41.50
2023-03-29T14:42:29.983Z,41.30
2023-03-29T14:45:05.858Z,40.90
2023-03-29T14:47:35.075Z,41.10
2023-03-29T14:50:06.136Z,41.20
2023-03-29T14:52:35.417Z,42.60
2023-03-29T14:55:04.301Z,42.70
2023-03-29T14:57:37.831Z,42.30
2023-03-29T15:00:24.557Z,42.60
2023-03-29T15:02:57.239Z,42.70
2023-03-29T15:05:38.472Z,43.70
2023-03-29T15:08:10.317Z,43.70
2023-03-29T15:10:41.784Z,44.10
2023-03-29T15:13:18.516Z,45.10
2023-03-29T15:15:47.131Z,45.00
2023-03-29T15:18:17.436Z,45.30
2023-03-29T15:20:46.838Z,44.70
2023-03-29T15:23:23.955Z,44.50
2023-03-29T15:25:58.277Z,44.60
2023-03-29T15:28:30.692Z,43.60
2023-03-29T15:31:07.698Z,44.00
2023-03-29T15:33:37.373Z,44.00
2023-03-29T15:36:08.614Z,44.00
2023-03-29T15:38:44.099Z,44.50
2023-03-29T15:41:14.514Z,45.10
2023-03-29T15:43:42.811Z,45.70
2023-03-29T15:46:12.687Z,45.80
2023-03-29T15:48:40.506Z,46.80
2023-03-29T15:51:11.537Z,46.80
2023-03-29T15:53:39.606Z,47.00
2023-03-29T15:56:11.364Z,46.60
2023-03-29T15:58:39.675Z,46.40
2023-03-29T16:01:15.814Z,47.00
2023-03-29T16:03:47.107Z,46.80
2023-03-29T16:06:17.896Z,47.00
2023-03-29T16:08:46.074Z,47.10
2023-03-29T16:11:14.054Z,47.20
2023-03-29T16:13:41.951Z,47.30
2023-03-29T16:16:11.558Z,48.00
2023-03-29T16:18:39.559Z,47.90
2023-03-29T16:21:11.816Z,48.50
2023-03-29T16:23:41.718Z,48.30
2023-03-29T16:26:12.315Z,48.40
2023-03-29T16:28:41.043Z,48.30
2023-03-29T16:31:11.182Z,48.50
2023-03-29T16:33:39.030Z,48.70
2023-03-29T16:36:07.985Z,49.80
2023-03-29T16:38:35.862Z,49.80
2023-03-29T16:41:05.481Z,49.80
2023-03-29T16:43:33.295Z,50.20
2023-03-29T16:46:01.241Z,50.50
2023-03-29T16:48:29.510Z,50.70
2023-03-29T16:50:57.457Z,50.80
2023-03-29T16:53:27.048Z,51.20
2023-03-29T16:55:54.859Z,51.50
2023-03-29T16:58:24.201Z,51.80
2023-03-29T17:00:53.657Z,51.80
2023-03-29T17:03:21.673Z,51.70
2023-03-29T17:05:50.216Z,50.80
2023-03-29T17:08:18.167Z,50.70
2023-03-29T17:10:46.254Z,51.10
2023-03-29T17:13:14.570Z,50.90
2023-03-29T17:15:43.745Z,50.90
2023-03-29T17:18:12.233Z,50.20
2023-03-29T17:20:40.669Z,50.50
2023-03-29T17:23:08.918Z,49.90
2023-03-29T17:25:36.905Z,49.50
2023-03-29T17:28:04.711Z,49.00
2023-03-29T17:30:34.268Z,48.50
2023-03-29T17:33:03.879Z,48.50
2023-03-29T17:35:31.965Z,47.50
2023-03-29T17:38:00.420Z,47.00
2023-03-29T17:40:28.280Z,46.80
2023-03-29T17:42:56.347Z,47.00
2023-03-29T17:45:24.180Z,47.00
2023-03-29T17:47:52.003Z,47.20
2023-03-29T17:50:21.623Z,47.50
2023-03-29T17:52:49.477Z,47.20
2023-03-29T17:55:17.608Z,47.30
2023-03-29T17:57:45.463Z,47.20
2023-03-29T18:00:14.967Z,46.90
2023-03-29T18:02:42.889Z,46.80
2023-03-29T18:05:11.731Z,47.10
2023-03-29T18:07:40.966Z,47.00
2023-03-29T18:10:09.484Z,46.70
2023-03-29T18:12:37.368Z,46.60
2023-03-29T18:15:06.295Z,45.80
2023-03-29T18:17:35.568Z,46.10
2023-03-29T18:20:06.153Z,46.30
2023-03-29T18:22:34.127Z,46.20
2023-03-29T18:25:05.586Z,46.10
2023-03-29T18:27:33.387Z,45.80
2023-03-29T18:30:02.115Z,46.10
2023-03-29T18:32:29.952Z,46.10
2023-03-29T18:34:57.742Z,46.00
2023-03-29T18:37:25.657Z,45.80
2023-03-29T18:39:53.435Z,44.80
2023-03-29T18:42:22.543Z,44.70
2023-03-29T18:44:50.801Z,44.50
2023-03-29T18:47:19.218Z,44.40
2023-03-29T18:49:47.268Z,44.60
2023-03-29T18:52:15.215Z,44.50
2023-03-29T18:54:43.027Z,44.10
2023-03-29T18:57:10.877Z,44.20
2023-03-29T18:59:40.027Z,44.40
2023-03-29T19:02:08.315Z,44.60
2023-03-29T19:04:36.535Z,44.60
2023-03-29T19:07:04.310Z,44.30
2023-03-29T19:09:32.387Z,44.40
2023-03-29T19:12:00.194Z,44.40
2023-03-29T19:14:29.264Z,44.40
2023-03-29T19:16:58.426Z,44.60
2023-03-29T19:19:27.215Z,44.70
2023-03-29T19:21:57.614Z,45.00
2023-03-29T19:24:26.953Z,45.10
2023-03-29T19:26:54.812Z,45.40
2023-03-29T19:29:22.867Z,45.70
2023-03-29T19:31:51.832Z,45.80
2023-03-29T19:34:22.914Z,46.50
2023-03-29T19:36:50.836Z,46.40
2023-03-29T19:39:18.618Z,46.80
2023-03-29T19:41:46.363Z,47.20
2023-03-29T19:44:14.332Z,47.70
2023-03-29T19:46:42.287Z,48.60
2023-03-29T19:49:13.482Z,48.70
2023-03-29T19:51:43.202Z,48.60
2023-03-29T19:54:12.730Z,48.80
2023-03-29T19:56:42.661Z,49.30
2023-03-29T19:59:11.207Z,49.50
2023-03-29T20:01:42.616Z,49.30
2023-03-29T20:04:11.835Z,49.90
2023-03-29T20:06:39.713Z,49.50
2023-03-29T20:09:08.843Z,49.80
2023-03-29T20:11:36.620Z,49.90
2023-03-29T20:14:05.047Z,49.90
2023-03-29T20:16:34.855Z,49.90
2023-03-29T20:19:03.176Z,49.70
2023-03-29T20:21:31.223Z,50.10
2023-03-29T20:23:59.060Z,50.40
2023-03-29T20:26:29.054Z,50.30
2023-03-29T20:28:56.847Z,50.40
2023-03-29T20:31:24.726Z,50.40
2023-03-29T20:33:52.927Z,50.10
2023-03-29T20:36:22.964Z,49.70
2023-03-29T20:38:51.350Z,49.70
2023-03-29T20:41:20.629Z,49.60
2023-03-29T20:43:58.140Z,49.40
2023-03-29T20:46:33.151Z,49.30
2023-03-29T20:49:01.788Z,49.30
2023-03-29T20:51:32.063Z,49.70
2023-03-29T20:54:04.480Z,50.10
2023-03-29T20:56:34.604Z,50.00
2023-03-29T20:59:04.084Z,50.40
2023-03-29T21:01:32.460Z,50.20
2023-03-29T21:04:00.355Z,50.80
2023-03-29T21:06:28.203Z,50.70
2023-03-29T21:08:55.986Z,51.00
2023-03-29T21:11:23.834Z,50.60
2023-03-29T21:13:52.816Z,51.00
2023-03-29T21:16:22.026Z,51.60
2023-03-29T21:18:49.984Z,51.10
2023-03-29T21:21:18.013Z,51.50
2023-03-29T21:23:45.824Z,51.20
2023-03-29T21:26:13.632Z,51.50
2023-03-29T21:28:42.382Z,51.70
2023-03-29T21:31:10.760Z,52.10
2023-03-29T21:33:39.952Z,52.30
2023-03-29T21:36:08.291Z,52.30
2023-03-29T21:38:36.435Z,52.40
2023-03-29T21:41:04.458Z,52.50
2023-03-29T21:43:32.374Z,52.50
2023-03-29T21:46:00.150Z,52.70
2023-03-29T21:48:27.909Z,53.00
2023-03-29T21:50:56.998Z,53.30
2023-03-29T21:53:25.754Z,53.50
2023-03-29T21:55:53.806Z,53.50
2023-03-29T21:58:21.713Z,53.60
2023-03-29T22:00:49.633Z,53.80
2023-03-29T22:03:17.911Z,53.90
2023-03-29T22:05:58.410Z,54.20
2023-03-29T22:08:26.892Z,54.40
2023-03-29T22:10:56.584Z,54.10
2023-03-29T22:13:25.340Z,53.80
2023-03-29T22:15:59.829Z,54.10
2023-03-29T22:18:30.029Z,54.30
2023-03-29T22:20:59.215Z,54.50
2023-03-29T22:23:27.729Z,54.60
2023-03-29T22:25:55.549Z,54.60
2023-03-29T22:28:23.330Z,54.70
2023-03-29T22:30:51.308Z,54.80
2023-03-29T22:33:19.114Z,54.70
2023-03-29T22:35:46.962Z,54.50
2023-03-29T22:38:16.140Z,54.30
2023-03-29T22:40:43.938Z,54.30
2023-03-29T22:43:11.764Z,54.40
2023-03-29T22:45:39.565Z,54.30
2023-03-29T22:48:07.692Z,54.40
2023-03-29T22:50:35.891Z,54.40
2023-03-29T22:53:03.732Z,54.40
2023-03-29T22:55:32.874Z,54.70
2023-03-29T22:58:00.652Z,54.50
2023-03-29T23:00:28.529Z,54.50
2023-03-29T23:02:56.388Z,54.10
2023-03-29T23:05:24.393Z,54.00
2023-03-29T23:07:52.290Z,54.00
2023-03-29T23:10:20.352Z,54.40
2023-03-29T23:12:49.988Z,54.60
2023-03-29T23:15:17.953Z,54.60
2023-03-29T23:17:45.819Z,54.80
2023-03-29T23:20:13.960Z,55.30
2023-03-29T23:22:41.785Z,55.40
2023-03-29T23:25:10.083Z,55.80
2023-03-29T23:27:37.860Z,55.40
2023-03-29T23:30:08.815Z,55.50
2023-03-29T23:32:36.635Z,56.10
2023-03-29T23:35:05.138Z,57.30
2023-03-29T23:37:33.052Z,59.00
2023-03-29T23:40:00.836Z,61.10
2023-03-29T23:42:30.804Z,62.20
2023-03-29T23:44:58.594Z,63.80
2023-03-29T23:47:28.881Z,64.20
2023-03-29T23:49:56.675Z,66.00
2023-03-29T23:52:24.511Z,67.10
2023-03-29T23:54:52.421Z,68.70
2023-03-29T23:57:21.236Z,69.60
2023-03-29T23:59:52.782Z,71.20
